sensor_id;sensor_type;location;lat;lon;timestamp;temperature;humidity
27795;DHT22;15176;50.844;4.412;2022-10-17T00:01:10;18.40;99.90
27795;DHT22;15176;50.844;4.412;2022-10-17T00:03:37;18.60;99.90
27795;DHT22;15176;50.844;4.412;2022-10-17T00:06:12;18.40;99.90
27795;DHT22;15176;50.844;4.412;2022-10-17T00:08:40;18.20;99.90
27795;DHT22;15176;50.844;4.412;2022-10-17T00:11:10;18.50;99.90
27795;DHT22;15176;50.844;4.412;2022-10-17T00:13:37;18.30;99.90
27795;DHT22;15176;50.844;4.412;2022-10-17T00:16:03;18.40;99.90
27795;DHT22;15176;50.844;4.412;2022-10-17T00:18:29;18.00;99.90
27795;DHT22;15176;50.844;4.412;2022-10-17T00:20:54;17.90;99.90
27795;DHT22;15176;50.844;4.412;2022-10-17T00:23:20;18.00;99.90
27795;DHT22;15176;50.844;4.412;2022-10-17T00:25:46;18.20;99.90
27795;DHT22;15176;50.844;4.412;2022-10-17T00:28:13;18.30;99.90
27795;DHT22;15176;50.844;4.412;2022-10-17T00:30:39;18.30;99.90
27795;DHT22;15176;50.844;4.412;2022-10-17T00:33:05;18.30;99.90
27795;DHT22;15176;50.844;4.412;2022-10-17T00:35:31;18.40;99.90
27795;DHT22;15176;50.844;4.412;2022-10-17T00:37:56;18.40;99.90
27795;DHT22;15176;50.844;4.412;2022-10-17T00:40:22;18.40;99.90
27795;DHT22;15176;50.844;4.412;2022-10-17T00:42:48;18.50;99.90
27795;DHT22;15176;50.844;4.412;2022-10-17T00:45:28;18.60;99.90
27795;DHT22;15176;50.844;4.412;2022-10-17T00:47:58;18.70;99.90
27795;DHT22;15176;50.844;4.412;2022-10-17T00:50:26;18.60;99.90
27795;DHT22;15176;50.844;4.412;2022-10-17T00:52:53;18.30;99.90
27795;DHT22;15176;50.844;4.412;2022-10-17T00:55:27;18.20;99.90
27795;DHT22;15176;50.844;4.412;2022-10-17T00:57:56;18.40;99.90
27795;DHT22;15176;50.844;4.412;2022-10-17T01:00:24;18.50;99.90
27795;DHT22;15176;50.844;4.412;2022-10-17T01:02:50;18.60;99.90
27795;DHT22;15176;50.844;4.412;2022-10-17T01:05:17;18.40;99.90
27795;DHT22;15176;50.844;4.412;2022-10-17T01:07:44;18.40;99.90
27795;DHT22;15176;50.844;4.412;2022-10-17T01:10:11;18.40;99.90
27795;DHT22;15176;50.844;4.412;2022-10-17T01:13:00;18.20;99.90
27795;DHT22;15176;50.844;4.412;2022-10-17T01:15:35;18.10;99.90
27795;DHT22;15176;50.844;4.412;2022-10-17T01:29:52;18.30;99.90
27795;DHT22;15176;50.844;4.412;2022-10-17T01:32:53;18.40;99.90
27795;DHT22;15176;50.844;4.412;2022-10-17T01:35:31;18.40;99.90
27795;DHT22;15176;50.844;4.412;2022-10-17T01:38:17;18.30;99.90
27795;DHT22;15176;50.844;4.412;2022-10-17T01:40:49;18.30;99.90
27795;DHT22;15176;50.844;4.412;2022-10-17T01:45:58;18.20;99.90
27795;DHT22;15176;50.844;4.412;2022-10-17T01:48:33;18.20;99.90
27795;DHT22;15176;50.844;4.412;2022-10-17T01:51:10;18.10;99.90
27795;DHT22;15176;50.844;4.412;2022-10-17T01:53:43;18.10;99.90
27795;DHT22;15176;50.844;4.412;2022-10-17T01:56:12;18.10;99.90
27795;DHT22;15176;50.844;4.412;2022-10-17T01:58:51;18.20;99.90
27795;DHT22;15176;50.844;4.412;2022-10-17T02:01:19;18.30;99.90
27795;DHT22;15176;50.844;4.412;2022-10-17T02:03:48;18.40;99.90
27795;DHT22;15176;50.844;4.412;2022-10-17T02:06:15;18.50;99.90
27795;DHT22;15176;50.844;4.412;2022-10-17T02:08:45;18.40;99.90
27795;DHT22;15176;50.844;4.412;2022-10-17T02:11:15;18.30;99.90
27795;DHT22;15176;50.844;4.412;2022-10-17T02:16:38;18.50;99.90
27795;DHT22;15176;50.844;4.412;2022-10-17T02:24:46;18.70;99.90
27795;DHT22;15176;50.844;4.412;2022-10-17T02:29:47;18.40;99.90
27795;DHT22;15176;50.844;4.412;2022-10-17T02:32:26;18.30;99.90
27795;DHT22;15176;50.844;4.412;2022-10-17T02:34:55;18.30;99.90
27795;DHT22;15176;50.844;4.412;2022-10-17T02:37:25;18.40;99.90
27795;DHT22;15176;50.844;4.412;2022-10-17T02:39:53;18.40;99.90
27795;DHT22;15176;50.844;4.412;2022-10-17T02:42:22;18.50;99.90
27795;DHT22;15176;50.844;4.412;2022-10-17T02:44:49;18.70;99.90
27795;DHT22;15176;50.844;4.412;2022-10-17T02:47:24;18.70;99.90
27795;DHT22;15176;50.844;4.412;2022-10-17T02:49:53;18.80;99.90
27795;DHT22;15176;50.844;4.412;2022-10-17T02:54:57;18.80;99.90
27795;DHT22;15176;50.844;4.412;2022-10-17T02:57:29;18.80;99.90
27795;DHT22;15176;50.844;4.412;2022-10-17T02:59:57;18.90;99.90
27795;DHT22;15176;50.844;4.412;2022-10-17T03:02:23;18.90;99.90
27795;DHT22;15176;50.844;4.412;2022-10-17T03:04:49;18.90;99.90
27795;DHT22;15176;50.844;4.412;2022-10-17T03:07:15;19.10;99.90
27795;DHT22;15176;50.844;4.412;2022-10-17T03:09:40;18.80;99.90
27795;DHT22;15176;50.844;4.412;2022-10-17T03:12:06;18.70;99.90
27795;DHT22;15176;50.844;4.412;2022-10-17T03:14:32;18.60;99.90
27795;DHT22;15176;50.844;4.412;2022-10-17T03:16:57;18.50;99.90
27795;DHT22;15176;50.844;4.412;2022-10-17T03:19:23;18.70;99.90
27795;DHT22;15176;50.844;4.412;2022-10-17T03:21:48;18.70;99.90
27795;DHT22;15176;50.844;4.412;2022-10-17T03:24:14;18.70;99.90
27795;DHT22;15176;50.844;4.412;2022-10-17T03:26:40;18.80;99.90
27795;DHT22;15176;50.844;4.412;2022-10-17T03:29:05;18.90;99.90
27795;DHT22;15176;50.844;4.412;2022-10-17T03:31:31;19.00;99.90
27795;DHT22;15176;50.844;4.412;2022-10-17T03:33:56;19.00;99.90
27795;DHT22;15176;50.844;4.412;2022-10-17T03:36:22;19.00;99.90
27795;DHT22;15176;50.844;4.412;2022-10-17T03:38:48;18.70;99.90
27795;DHT22;15176;50.844;4.412;2022-10-17T03:41:17;18.70;99.90
27795;DHT22;15176;50.844;4.412;2022-10-17T03:43:43;18.60;99.90
27795;DHT22;15176;50.844;4.412;2022-10-17T03:46:08;18.60;99.90
27795;DHT22;15176;50.844;4.412;2022-10-17T03:48:34;18.70;99.90
27795;DHT22;15176;50.844;4.412;2022-10-17T03:51:05;18.70;99.90
27795;DHT22;15176;50.844;4.412;2022-10-17T03:53:31;18.60;99.90
27795;DHT22;15176;50.844;4.412;2022-10-17T03:56:08;18.60;99.90
27795;DHT22;15176;50.844;4.412;2022-10-17T03:58:34;18.50;99.90
27795;DHT22;15176;50.844;4.412;2022-10-17T04:01:06;18.50;99.90
27795;DHT22;15176;50.844;4.412;2022-10-17T04:03:32;18.70;99.90
27795;DHT22;15176;50.844;4.412;2022-10-17T04:05:59;18.60;99.90
27795;DHT22;15176;50.844;4.412;2022-10-17T04:08:26;18.50;99.90
27795;DHT22;15176;50.844;4.412;2022-10-17T04:10:51;18.50;99.90
27795;DHT22;15176;50.844;4.412;2022-10-17T04:13:17;18.40;99.90
27795;DHT22;15176;50.844;4.412;2022-10-17T04:15:53;18.50;99.90
27795;DHT22;15176;50.844;4.412;2022-10-17T04:18:19;18.70;99.90
27795;DHT22;15176;50.844;4.412;2022-10-17T04:20:44;18.70;99.90
27795;DHT22;15176;50.844;4.412;2022-10-17T04:23:10;18.50;99.90
27795;DHT22;15176;50.844;4.412;2022-10-17T04:25:36;18.40;99.90
27795;DHT22;15176;50.844;4.412;2022-10-17T04:28:01;18.30;99.90
27795;DHT22;15176;50.844;4.412;2022-10-17T04:30:27;18.40;99.90
27795;DHT22;15176;50.844;4.412;2022-10-17T04:32:53;18.40;99.90
27795;DHT22;15176;50.844;4.412;2022-10-17T04:35:19;18.40;99.90
27795;DHT22;15176;50.844;4.412;2022-10-17T04:37:44;18.70;99.90
27795;DHT22;15176;50.844;4.412;2022-10-17T04:40:10;18.80;99.90
27795;DHT22;15176;50.844;4.412;2022-10-17T04:42:36;18.80;99.90
27795;DHT22;15176;50.844;4.412;2022-10-17T04:45:02;18.80;99.90
27795;DHT22;15176;50.844;4.412;2022-10-17T04:47:28;18.80;99.90
27795;DHT22;15176;50.844;4.412;2022-10-17T04:49:53;18.60;99.90
27795;DHT22;15176;50.844;4.412;2022-10-17T04:52:19;18.60;99.90
27795;DHT22;15176;50.844;4.412;2022-10-17T04:54:45;18.60;99.90
27795;DHT22;15176;50.844;4.412;2022-10-17T04:57:10;18.70;99.90
27795;DHT22;15176;50.844;4.412;2022-10-17T04:59:36;18.70;99.90
27795;DHT22;15176;50.844;4.412;2022-10-17T05:02:02;18.70;99.90
27795;DHT22;15176;50.844;4.412;2022-10-17T05:04:28;18.70;99.90
27795;DHT22;15176;50.844;4.412;2022-10-17T05:06:53;19.00;99.90
27795;DHT22;15176;50.844;4.412;2022-10-17T05:09:19;18.90;99.90
27795;DHT22;15176;50.844;4.412;2022-10-17T05:11:44;19.00;99.90
27795;DHT22;15176;50.844;4.412;2022-10-17T05:14:10;18.70;99.90
27795;DHT22;15176;50.844;4.412;2022-10-17T05:16:36;19.00;99.90
27795;DHT22;15176;50.844;4.412;2022-10-17T05:19:01;19.20;99.90
27795;DHT22;15176;50.844;4.412;2022-10-17T05:21:28;19.10;99.90
27795;DHT22;15176;50.844;4.412;2022-10-17T05:23:55;19.20;99.90
27795;DHT22;15176;50.844;4.412;2022-10-17T05:26:21;19.40;99.90
27795;DHT22;15176;50.844;4.412;2022-10-17T05:28:46;19.50;99.90
27795;DHT22;15176;50.844;4.412;2022-10-17T05:31:12;19.60;99.90
27795;DHT22;15176;50.844;4.412;2022-10-17T05:33:39;19.70;99.90
27795;DHT22;15176;50.844;4.412;2022-10-17T05:36:16;19.80;99.90
27795;DHT22;15176;50.844;4.412;2022-10-17T05:38:42;19.60;99.90
27795;DHT22;15176;50.844;4.412;2022-10-17T05:41:08;19.40;99.90
27795;DHT22;15176;50.844;4.412;2022-10-17T05:43:35;19.40;99.90
27795;DHT22;15176;50.844;4.412;2022-10-17T05:46:04;19.20;99.90
27795;DHT22;15176;50.844;4.412;2022-10-17T05:48:31;19.20;99.90
27795;DHT22;15176;50.844;4.412;2022-10-17T05:50:59;19.00;99.90
27795;DHT22;15176;50.844;4.412;2022-10-17T05:53:24;19.10;99.90
27795;DHT22;15176;50.844;4.412;2022-10-17T05:56:02;19.20;99.90
27795;DHT22;15176;50.844;4.412;2022-10-17T05:58:29;19.30;99.90
27795;DHT22;15176;50.844;4.412;2022-10-17T06:01:03;19.40;99.90
27795;DHT22;15176;50.844;4.412;2022-10-17T06:03:29;19.20;99.90
27795;DHT22;15176;50.844;4.412;2022-10-17T06:05:55;19.10;99.90
27795;DHT22;15176;50.844;4.412;2022-10-17T06:08:21;19.10;99.90
27795;DHT22;15176;50.844;4.412;2022-10-17T06:10:48;19.00;99.90
27795;DHT22;15176;50.844;4.412;2022-10-17T06:13:15;19.00;99.90
27795;DHT22;15176;50.844;4.412;2022-10-17T06:15:41;19.20;99.90
27795;DHT22;15176;50.844;4.412;2022-10-17T06:18:07;19.40;99.90
27795;DHT22;15176;50.844;4.412;2022-10-17T06:20:32;19.50;99.90
27795;DHT22;15176;50.844;4.412;2022-10-17T06:22:58;19.60;99.90
27795;DHT22;15176;50.844;4.412;2022-10-17T06:25:24;19.80;99.90
27795;DHT22;15176;50.844;4.412;2022-10-17T06:27:49;19.90;99.90
27795;DHT22;15176;50.844;4.412;2022-10-17T06:30:15;19.60;99.90
27795;DHT22;15176;50.844;4.412;2022-10-17T06:32:40;19.40;99.90
27795;DHT22;15176;50.844;4.412;2022-10-17T06:35:06;19.40;99.90
27795;DHT22;15176;50.844;4.412;2022-10-17T06:37:37;19.40;99.90
27795;DHT22;15176;50.844;4.412;2022-10-17T06:40:04;19.50;99.90
27795;DHT22;15176;50.844;4.412;2022-10-17T06:42:30;19.50;99.90
27795;DHT22;15176;50.844;4.412;2022-10-17T06:44:56;19.60;99.90
27795;DHT22;15176;50.844;4.412;2022-10-17T06:47:21;20.00;99.90
27795;DHT22;15176;50.844;4.412;2022-10-17T06:49:47;20.00;99.90
27795;DHT22;15176;50.844;4.412;2022-10-17T06:52:13;20.00;99.90
27795;DHT22;15176;50.844;4.412;2022-10-17T06:54:39;20.30;99.90
27795;DHT22;15176;50.844;4.412;2022-10-17T06:57:04;20.60;99.90
27795;DHT22;15176;50.844;4.412;2022-10-17T06:59:30;20.40;99.90
27795;DHT22;15176;50.844;4.412;2022-10-17T07:01:56;20.20;99.90
27795;DHT22;15176;50.844;4.412;2022-10-17T07:04:21;20.10;99.90
27795;DHT22;15176;50.844;4.412;2022-10-17T07:06:47;20.10;99.90
27795;DHT22;15176;50.844;4.412;2022-10-17T07:09:12;20.10;99.90
27795;DHT22;15176;50.844;4.412;2022-10-17T07:11:38;20.50;99.90
27795;DHT22;15176;50.844;4.412;2022-10-17T07:14:04;20.60;99.90
27795;DHT22;15176;50.844;4.412;2022-10-17T07:16:30;20.80;99.90
27795;DHT22;15176;50.844;4.412;2022-10-17T07:18:56;20.80;99.90
27795;DHT22;15176;50.844;4.412;2022-10-17T07:21:28;20.80;99.90
27795;DHT22;15176;50.844;4.412;2022-10-17T07:23:53;20.90;99.90
27795;DHT22;15176;50.844;4.412;2022-10-17T07:26:20;20.70;99.90
27795;DHT22;15176;50.844;4.412;2022-10-17T07:28:50;20.50;99.90
27795;DHT22;15176;50.844;4.412;2022-10-17T07:31:17;20.60;99.90
27795;DHT22;15176;50.844;4.412;2022-10-17T07:33:43;20.60;99.90
27795;DHT22;15176;50.844;4.412;2022-10-17T07:36:10;20.20;99.90
27795;DHT22;15176;50.844;4.412;2022-10-17T07:38:36;20.10;99.90
27795;DHT22;15176;50.844;4.412;2022-10-17T07:41:04;20.00;99.90
27795;DHT22;15176;50.844;4.412;2022-10-17T07:43:30;19.90;99.90
27795;DHT22;15176;50.844;4.412;2022-10-17T07:45:57;19.90;99.90
27795;DHT22;15176;50.844;4.412;2022-10-17T07:48:23;19.90;99.90
27795;DHT22;15176;50.844;4.412;2022-10-17T07:50:50;19.60;99.90
27795;DHT22;15176;50.844;4.412;2022-10-17T07:53:16;19.60;99.90
27795;DHT22;15176;50.844;4.412;2022-10-17T07:55:42;19.80;99.90
27795;DHT22;15176;50.844;4.412;2022-10-17T07:58:09;19.80;99.90
27795;DHT22;15176;50.844;4.412;2022-10-17T08:00:40;19.70;99.90
27795;DHT22;15176;50.844;4.412;2022-10-17T08:03:06;19.90;99.90
27795;DHT22;15176;50.844;4.412;2022-10-17T08:05:32;19.70;99.90
27795;DHT22;15176;50.844;4.412;2022-10-17T08:07:58;19.80;99.90
27795;DHT22;15176;50.844;4.412;2022-10-17T08:10:24;19.70;99.90
27795;DHT22;15176;50.844;4.412;2022-10-17T08:12:57;19.70;99.90
27795;DHT22;15176;50.844;4.412;2022-10-17T08:15:24;20.00;99.90
27795;DHT22;15176;50.844;4.412;2022-10-17T08:17:50;20.30;99.90
27795;DHT22;15176;50.844;4.412;2022-10-17T08:20:16;20.40;99.90
27795;DHT22;15176;50.844;4.412;2022-10-17T08:22:42;20.30;99.90
27795;DHT22;15176;50.844;4.412;2022-10-17T08:25:08;20.40;99.90
27795;DHT22;15176;50.844;4.412;2022-10-17T08:27:34;20.40;99.90
27795;DHT22;15176;50.844;4.412;2022-10-17T08:30:00;20.10;99.90
27795;DHT22;15176;50.844;4.412;2022-10-17T08:32:27;20.00;99.90
27795;DHT22;15176;50.844;4.412;2022-10-17T08:34:54;19.90;99.90
27795;DHT22;15176;50.844;4.412;2022-10-17T08:37:21;19.70;99.90
27795;DHT22;15176;50.844;4.412;2022-10-17T08:39:47;20.00;99.90
27795;DHT22;15176;50.844;4.412;2022-10-17T08:48:03;20.50;99.90
27795;DHT22;15176;50.844;4.412;2022-10-17T08:51:04;20.80;99.90
27795;DHT22;15176;50.844;4.412;2022-10-17T08:53:35;21.10;99.90
27795;DHT22;15176;50.844;4.412;2022-10-17T08:56:15;21.50;99.90
27795;DHT22;15176;50.844;4.412;2022-10-17T08:58:42;21.70;99.90
27795;DHT22;15176;50.844;4.412;2022-10-17T09:04:39;21.90;99.90
27795;DHT22;15176;50.844;4.412;2022-10-17T09:10:08;21.30;99.90
27795;DHT22;15176;50.844;4.412;2022-10-17T09:15:30;21.50;99.90
27795;DHT22;15176;50.844;4.412;2022-10-17T09:18:18;21.20;99.90
27795;DHT22;15176;50.844;4.412;2022-10-17T09:20:55;21.10;99.90
27795;DHT22;15176;50.844;4.412;2022-10-17T09:23:37;21.20;99.90
27795;DHT22;15176;50.844;4.412;2022-10-17T09:26:05;21.50;99.90
27795;DHT22;15176;50.844;4.412;2022-10-17T09:28:39;21.80;99.90
27795;DHT22;15176;50.844;4.412;2022-10-17T09:33:53;21.70;99.90
27795;DHT22;15176;50.844;4.412;2022-10-17T09:36:26;21.70;99.90
27795;DHT22;15176;50.844;4.412;2022-10-17T09:39:17;21.80;99.90
27795;DHT22;15176;50.844;4.412;2022-10-17T09:41:49;22.00;99.90
27795;DHT22;15176;50.844;4.412;2022-10-17T09:44:28;21.70;99.90
27795;DHT22;15176;50.844;4.412;2022-10-17T09:47:38;21.50;99.90
27795;DHT22;15176;50.844;4.412;2022-10-17T09:49:56;21.30;99.90
27795;DHT22;15176;50.844;4.412;2022-10-17T09:52:32;21.10;99.90
27795;DHT22;15176;50.844;4.412;2022-10-17T09:55:03;21.00;99.90
27795;DHT22;15176;50.844;4.412;2022-10-17T09:57:54;21.00;99.90
27795;DHT22;15176;50.844;4.412;2022-10-17T10:00:27;21.00;99.90
27795;DHT22;15176;50.844;4.412;2022-10-17T10:03:17;21.10;99.90
27795;DHT22;15176;50.844;4.412;2022-10-17T10:08:58;20.90;99.90
27795;DHT22;15176;50.844;4.412;2022-10-17T10:11:51;20.90;99.90
27795;DHT22;15176;50.844;4.412;2022-10-17T10:14:35;21.00;99.90
27795;DHT22;15176;50.844;4.412;2022-10-17T10:17:23;21.00;99.90
27795;DHT22;15176;50.844;4.412;2022-10-17T10:19:51;21.00;99.90
27795;DHT22;15176;50.844;4.412;2022-10-17T10:22:19;20.80;99.90
27795;DHT22;15176;50.844;4.412;2022-10-17T10:25:06;21.10;99.90
27795;DHT22;15176;50.844;4.412;2022-10-17T10:27:32;21.40;99.90
27795;DHT22;15176;50.844;4.412;2022-10-17T10:29:58;21.50;99.90
27795;DHT22;15176;50.844;4.412;2022-10-17T10:32:33;21.50;99.90
27795;DHT22;15176;50.844;4.412;2022-10-17T10:35:05;21.70;99.90
27795;DHT22;15176;50.844;4.412;2022-10-17T10:37:38;21.80;99.90
27795;DHT22;15176;50.844;4.412;2022-10-17T10:40:16;21.70;99.90
27795;DHT22;15176;50.844;4.412;2022-10-17T10:42:46;21.60;99.90
27795;DHT22;15176;50.844;4.412;2022-10-17T10:45:28;21.70;99.90
27795;DHT22;15176;50.844;4.412;2022-10-17T10:48:26;21.70;99.90
27795;DHT22;15176;50.844;4.412;2022-10-17T10:51:13;21.80;99.90
27795;DHT22;15176;50.844;4.412;2022-10-17T10:56:16;21.90;99.90
27795;DHT22;15176;50.844;4.412;2022-10-17T10:59:00;22.00;99.90
27795;DHT22;15176;50.844;4.412;2022-10-17T11:04:25;21.80;99.90
27795;DHT22;15176;50.844;4.412;2022-10-17T11:06:57;21.30;99.90
27795;DHT22;15176;50.844;4.412;2022-10-17T11:12:09;21.40;99.90
27795;DHT22;15176;50.844;4.412;2022-10-17T11:14:44;21.40;99.90
27795;DHT22;15176;50.844;4.412;2022-10-17T11:17:38;21.50;99.90
27795;DHT22;15176;50.844;4.412;2022-10-17T11:23:45;21.40;99.90
27795;DHT22;15176;50.844;4.412;2022-10-17T11:26:20;21.30;99.90
27795;DHT22;15176;50.844;4.412;2022-10-17T11:28:55;21.00;99.90
27795;DHT22;15176;50.844;4.412;2022-10-17T11:31:24;21.30;99.90
27795;DHT22;15176;50.844;4.412;2022-10-17T11:36:36;21.10;99.90
27795;DHT22;15176;50.844;4.412;2022-10-17T11:39:04;20.80;99.90
27795;DHT22;15176;50.844;4.412;2022-10-17T11:41:46;21.10;99.90
27795;DHT22;15176;50.844;4.412;2022-10-17T11:44:40;20.70;99.90
27795;DHT22;15176;50.844;4.412;2022-10-17T11:47:36;20.70;99.90
27795;DHT22;15176;50.844;4.412;2022-10-17T11:53:00;20.60;99.90
27795;DHT22;15176;50.844;4.412;2022-10-17T11:55:28;20.70;99.90
27795;DHT22;15176;50.844;4.412;2022-10-17T12:06:45;20.80;99.90
27795;DHT22;15176;50.844;4.412;2022-10-17T12:11:57;20.60;99.90
27795;DHT22;15176;50.844;4.412;2022-10-17T12:17:35;20.80;99.90
27795;DHT22;15176;50.844;4.412;2022-10-17T12:25:33;21.10;99.90
27795;DHT22;15176;50.844;4.412;2022-10-17T12:28:13;21.00;99.90
27795;DHT22;15176;50.844;4.412;2022-10-17T12:35:47;20.70;99.90
27795;DHT22;15176;50.844;4.412;2022-10-17T12:45:52;20.30;99.90
27795;DHT22;15176;50.844;4.412;2022-10-17T12:51:06;20.50;99.90
27795;DHT22;15176;50.844;4.412;2022-10-17T12:56:44;20.60;99.90
27795;DHT22;15176;50.844;4.412;2022-10-17T12:59:19;20.90;99.90
27795;DHT22;15176;50.844;4.412;2022-10-17T13:01:49;20.50;99.90
27795;DHT22;15176;50.844;4.412;2022-10-17T13:04:16;20.50;99.90
27795;DHT22;15176;50.844;4.412;2022-10-17T13:06:47;20.60;99.90
27795;DHT22;15176;50.844;4.412;2022-10-17T13:09:21;21.00;99.90
27795;DHT22;15176;50.844;4.412;2022-10-17T13:11:49;21.10;99.90
27795;DHT22;15176;50.844;4.412;2022-10-17T13:14:16;21.30;99.90
27795;DHT22;15176;50.844;4.412;2022-10-17T13:16:58;21.20;99.90
27795;DHT22;15176;50.844;4.412;2022-10-17T13:19:29;21.30;99.90
27795;DHT22;15176;50.844;4.412;2022-10-17T13:26:54;21.00;99.90
27795;DHT22;15176;50.844;4.412;2022-10-17T13:29:20;21.10;99.90
27795;DHT22;15176;50.844;4.412;2022-10-17T13:31:56;21.00;99.90
27795;DHT22;15176;50.844;4.412;2022-10-17T13:34:25;20.70;99.90
27795;DHT22;15176;50.844;4.412;2022-10-17T13:36:53;20.80;99.90
27795;DHT22;15176;50.844;4.412;2022-10-17T13:39:24;21.00;99.90
27795;DHT22;15176;50.844;4.412;2022-10-17T13:41:52;21.00;99.90
27795;DHT22;15176;50.844;4.412;2022-10-17T13:44:20;21.10;99.90
27795;DHT22;15176;50.844;4.412;2022-10-17T13:46:47;21.00;99.90
27795;DHT22;15176;50.844;4.412;2022-10-17T13:49:31;21.00;99.90
27795;DHT22;15176;50.844;4.412;2022-10-17T13:51:58;20.90;99.90
27795;DHT22;15176;50.844;4.412;2022-10-17T13:54:37;21.00;99.90
27795;DHT22;15176;50.844;4.412;2022-10-17T13:57:13;21.00;99.90
27795;DHT22;15176;50.844;4.412;2022-10-17T13:59:41;20.50;99.90
27795;DHT22;15176;50.844;4.412;2022-10-17T14:02:22;20.60;99.90
27795;DHT22;15176;50.844;4.412;2022-10-17T14:05:12;20.60;99.90
27795;DHT22;15176;50.844;4.412;2022-10-17T14:10:30;20.80;99.90
27795;DHT22;15176;50.844;4.412;2022-10-17T14:12:57;21.00;99.90
27795;DHT22;15176;50.844;4.412;2022-10-17T14:15:26;21.10;99.90
27795;DHT22;15176;50.844;4.412;2022-10-17T14:18:05;21.20;99.90
27795;DHT22;15176;50.844;4.412;2022-10-17T14:20:32;21.30;99.90
27795;DHT22;15176;50.844;4.412;2022-10-17T14:22:59;21.40;99.90
27795;DHT22;15176;50.844;4.412;2022-10-17T14:25:35;21.20;99.90
27795;DHT22;15176;50.844;4.412;2022-10-17T14:28:07;21.30;99.90
27795;DHT22;15176;50.844;4.412;2022-10-17T14:30:47;21.40;99.90
27795;DHT22;15176;50.844;4.412;2022-10-17T14:33:30;21.50;99.90
27795;DHT22;15176;50.844;4.412;2022-10-17T14:35:58;21.40;99.90
27795;DHT22;15176;50.844;4.412;2022-10-17T14:38:25;21.10;99.90
27795;DHT22;15176;50.844;4.412;2022-10-17T14:40:59;21.10;99.90
27795;DHT22;15176;50.844;4.412;2022-10-17T14:43:28;21.40;99.90
27795;DHT22;15176;50.844;4.412;2022-10-17T14:46:01;21.50;99.90
27795;DHT22;15176;50.844;4.412;2022-10-17T14:48:28;21.30;99.90
27795;DHT22;15176;50.844;4.412;2022-10-17T14:51:15;21.30;99.90
27795;DHT22;15176;50.844;4.412;2022-10-17T14:53:43;21.50;99.90
27795;DHT22;15176;50.844;4.412;2022-10-17T14:56:49;21.80;99.90
27795;DHT22;15176;50.844;4.412;2022-10-17T14:59:16;22.00;99.90
27795;DHT22;15176;50.844;4.412;2022-10-17T15:01:49;21.70;99.90
27795;DHT22;15176;50.844;4.412;2022-10-17T15:04:16;22.00;99.90
27795;DHT22;15176;50.844;4.412;2022-10-17T15:06:43;21.70;99.90
27795;DHT22;15176;50.844;4.412;2022-10-17T15:09:10;21.90;99.90
27795;DHT22;15176;50.844;4.412;2022-10-17T15:11:36;21.90;99.90
27795;DHT22;15176;50.844;4.412;2022-10-17T15:14:02;22.00;99.90
27795;DHT22;15176;50.844;4.412;2022-10-17T15:16:33;21.90;99.90
27795;DHT22;15176;50.844;4.412;2022-10-17T15:18:59;22.00;99.90
27795;DHT22;15176;50.844;4.412;2022-10-17T15:21:27;21.70;99.90
27795;DHT22;15176;50.844;4.412;2022-10-17T15:23:53;21.90;99.90
27795;DHT22;15176;50.844;4.412;2022-10-17T15:26:21;22.10;99.90
27795;DHT22;15176;50.844;4.412;2022-10-17T15:28:47;22.10;99.90
27795;DHT22;15176;50.844;4.412;2022-10-17T15:31:16;22.20;99.90
27795;DHT22;15176;50.844;4.412;2022-10-17T15:33:42;22.50;99.90
27795;DHT22;15176;50.844;4.412;2022-10-17T15:36:37;22.70;99.90
27795;DHT22;15176;50.844;4.412;2022-10-17T15:39:03;22.10;99.90
27795;DHT22;15176;50.844;4.412;2022-10-17T15:41:30;22.40;99.90
27795;DHT22;15176;50.844;4.412;2022-10-17T15:43:57;21.90;99.90
27795;DHT22;15176;50.844;4.412;2022-10-17T15:46:28;21.70;99.90
27795;DHT22;15176;50.844;4.412;2022-10-17T15:48:55;21.20;99.90
27795;DHT22;15176;50.844;4.412;2022-10-17T15:51:21;21.80;99.90
27795;DHT22;15176;50.844;4.412;2022-10-17T15:53:47;22.00;99.90
27795;DHT22;15176;50.844;4.412;2022-10-17T15:56:25;21.90;99.90
27795;DHT22;15176;50.844;4.412;2022-10-17T15:58:51;22.20;99.90
27795;DHT22;15176;50.844;4.412;2022-10-17T16:01:28;22.10;99.90
27795;DHT22;15176;50.844;4.412;2022-10-17T16:03:54;22.20;99.90
27795;DHT22;15176;50.844;4.412;2022-10-17T16:06:21;22.50;99.90
27795;DHT22;15176;50.844;4.412;2022-10-17T16:08:47;22.30;99.90
27795;DHT22;15176;50.844;4.412;2022-10-17T16:11:36;22.40;99.90
27795;DHT22;15176;50.844;4.412;2022-10-17T16:14:09;22.60;99.90
27795;DHT22;15176;50.844;4.412;2022-10-17T16:16:35;22.70;99.90
27795;DHT22;15176;50.844;4.412;2022-10-17T16:19:05;22.60;99.90
27795;DHT22;15176;50.844;4.412;2022-10-17T16:21:33;22.60;99.90
27795;DHT22;15176;50.844;4.412;2022-10-17T16:23:59;22.60;99.90
27795;DHT22;15176;50.844;4.412;2022-10-17T16:26:26;22.40;99.90
27795;DHT22;15176;50.844;4.412;2022-10-17T16:28:52;22.20;99.90
27795;DHT22;15176;50.844;4.412;2022-10-17T16:31:23;22.20;99.90
27795;DHT22;15176;50.844;4.412;2022-10-17T16:33:52;22.30;99.90
27795;DHT22;15176;50.844;4.412;2022-10-17T16:36:18;22.50;99.90
27795;DHT22;15176;50.844;4.412;2022-10-17T16:38:44;22.70;99.90
27795;DHT22;15176;50.844;4.412;2022-10-17T16:41:30;22.70;99.90
27795;DHT22;15176;50.844;4.412;2022-10-17T16:43:58;22.80;99.90
27795;DHT22;15176;50.844;4.412;2022-10-17T16:46:25;22.80;99.90
27795;DHT22;15176;50.844;4.412;2022-10-17T16:48:51;22.80;99.90
27795;DHT22;15176;50.844;4.412;2022-10-17T16:51:18;22.70;99.90
27795;DHT22;15176;50.844;4.412;2022-10-17T16:53:48;22.40;99.90
27795;DHT22;15176;50.844;4.412;2022-10-17T16:56:20;22.50;99.90
27795;DHT22;15176;50.844;4.412;2022-10-17T16:58:46;22.60;99.90
27795;DHT22;15176;50.844;4.412;2022-10-17T17:01:18;22.70;99.90
27795;DHT22;15176;50.844;4.412;2022-10-17T17:03:45;22.60;99.90
27795;DHT22;15176;50.844;4.412;2022-10-17T17:06:19;22.20;99.90
27795;DHT22;15176;50.844;4.412;2022-10-17T17:08:45;22.10;99.90
27795;DHT22;15176;50.844;4.412;2022-10-17T17:11:14;21.80;99.90
27795;DHT22;15176;50.844;4.412;2022-10-17T17:13:40;21.50;99.90
27795;DHT22;15176;50.844;4.412;2022-10-17T17:16:14;21.10;99.90
27795;DHT22;15176;50.844;4.412;2022-10-17T17:18:41;21.00;99.90
27795;DHT22;15176;50.844;4.412;2022-10-17T17:21:09;21.10;99.90
27795;DHT22;15176;50.844;4.412;2022-10-17T17:23:36;21.00;99.90
27795;DHT22;15176;50.844;4.412;2022-10-17T17:26:15;20.60;99.90
27795;DHT22;15176;50.844;4.412;2022-10-17T17:28:41;20.70;99.90
27795;DHT22;15176;50.844;4.412;2022-10-17T17:31:10;20.40;99.90
27795;DHT22;15176;50.844;4.412;2022-10-17T17:33:37;20.30;99.90
27795;DHT22;15176;50.844;4.412;2022-10-17T17:36:03;19.90;99.90
27795;DHT22;15176;50.844;4.412;2022-10-17T17:38:31;19.70;99.90
27795;DHT22;15176;50.844;4.412;2022-10-17T17:40:57;19.60;99.90